Time;durP1;ratioP1;P1;durP2;ratioP2;P2;SDS_P1;SDS_P2;PMS_P1;PMS_P2;Temp;Humidity;BMP_temperature;BMP_pressure;BME280_temperature;BME280_humidity;BME280_pressure;Samples;Min_cycle;Max_cycle;Signal;HPM_P1;HPM_P2
2023/10/03 00:00:31;;;;;;;49.55;13.13;;;;;;;;;;5056472;28;20086;-90
2023/10/03 00:02:57;;;;;;;50.70;13.57;;;;;;;;;;5055255;28;21298;-90
2023/10/03 00:05:24;;;;;;;45.58;13.18;;;;;;;;;;5056324;28;20056;-90
2023/10/03 00:07:51;;;;;;;46.22;12.43;;;;;;;;;;5060980;28;20040;-90
2023/10/03 00:10:17;;;;;;;40.70;11.95;;;;;;;;;;5056095;28;20414;-90
2023/10/03 00:12:42;;;;;;;42.72;11.73;;;;;;;;;;5055810;28;20021;-90
2023/10/03 00:15:08;;;;;;;49.33;12.13;;;;;;;;;;5056159;28;20062;-90
2023/10/03 00:17:34;;;;;;;40.67;11.30;;;;;;;;;;5071681;28;20043;-90
2023/10/03 00:20:00;;;;;;;45.25;12.15;;;;;;;;;;5071992;28;20021;-89
2023/10/03 00:22:25;;;;;;;38.65;11.50;;;;;;;;;;5065721;28;20017;-90
2023/10/03 00:24:51;;;;;;;39.67;12.27;;;;;;;;;;5054712;28;20080;-89
2023/10/03 00:27:16;;;;;;;41.67;11.75;;;;;;;;;;5071278;28;20020;-90
2023/10/03 00:29:42;;;;;;;38.97;11.60;;;;;;;;;;5071487;28;20036;-90
2023/10/03 00:32:07;;;;;;;39.53;10.95;;;;;;;;;;5071223;28;20024;-89
2023/10/03 00:34:36;;;;;;;37.97;11.32;;;;;;;;;;5054701;28;20027;-90
2023/10/03 00:37:01;;;;;;;41.92;11.73;;;;;;;;;;5051676;28;20020;-90
2023/10/03 00:39:27;;;;;;;37.80;12.10;;;;;;;;;;5054318;28;20016;-89
2023/10/03 00:41:53;;;;;;;36.72;10.90;;;;;;;;;;5072691;28;20062;-90
2023/10/03 00:44:19;;;;;;;41.63;12.35;;;;;;;;;;5071327;28;20032;-90
2023/10/03 00:46:45;;;;;;;36.17;11.02;;;;;;;;;;5054890;28;20036;-90
2023/10/03 00:49:14;;;;;;;41.90;10.95;;;;;;;;;;5055136;28;20020;-90
2023/10/03 00:51:44;;;;;;;39.58;10.85;;;;;;;;;;5054801;28;20024;-90
2023/10/03 00:54:10;;;;;;;40.10;11.50;;;;;;;;;;5060446;28;20032;-89
2023/10/03 00:56:43;;;;;;;42.65;11.88;;;;;;;;;;5073049;28;20017;-89
2023/10/03 00:59:08;;;;;;;45.95;11.98;;;;;;;;;;5054658;28;20074;-89
2023/10/03 01:01:35;;;;;;;43.70;12.60;;;;;;;;;;5055050;28;20021;-90
2023/10/03 01:04:01;;;;;;;48.35;11.43;;;;;;;;;;5055109;28;20028;-90
2023/10/03 01:06:26;;;;;;;39.17;12.23;;;;;;;;;;5054967;28;20016;-89
2023/10/03 01:08:54;;;;;;;40.13;10.95;;;;;;;;;;5073332;28;20361;-90
2023/10/03 01:11:20;;;;;;;41.17;11.80;;;;;;;;;;5059610;28;20024;-90
2023/10/03 01:13:47;;;;;;;39.25;11.38;;;;;;;;;;5072376;28;20029;-88
2023/10/03 01:16:13;;;;;;;41.88;11.43;;;;;;;;;;5055913;28;20112;-90
2023/10/03 01:18:41;;;;;;;32.20;9.50;;;;;;;;;;5053677;28;20481;-90
2023/10/03 01:21:10;;;;;;;42.47;10.75;;;;;;;;;;5054847;28;20023;-90
2023/10/03 01:23:35;;;;;;;32.55;9.38;;;;;;;;;;5054455;28;20116;-90
2023/10/03 01:26:03;;;;;;;41.17;10.35;;;;;;;;;;5055122;28;20044;-90
2023/10/03 01:28:28;;;;;;;38.38;9.88;;;;;;;;;;5071535;28;20025;-90
2023/10/03 01:30:54;;;;;;;38.72;10.30;;;;;;;;;;5055194;28;20471;-89
2023/10/03 01:33:22;;;;;;;32.22;9.55;;;;;;;;;;5047717;28;20048;-90
2023/10/03 01:35:48;;;;;;;34.05;9.50;;;;;;;;;;5055847;28;20013;-90
2023/10/03 01:38:14;;;;;;;37.65;10.70;;;;;;;;;;5057857;28;20378;-89
2023/10/03 01:40:40;;;;;;;40.38;10.45;;;;;;;;;;5075069;28;20055;-90
2023/10/03 01:43:07;;;;;;;34.55;9.70;;;;;;;;;;5058427;28;20012;-89
2023/10/03 01:45:32;;;;;;;37.88;10.57;;;;;;;;;;5058166;28;20021;-90
2023/10/03 01:47:58;;;;;;;31.42;9.48;;;;;;;;;;5072895;28;20016;-90
2023/10/03 01:50:24;;;;;;;35.03;9.77;;;;;;;;;;5057513;28;20479;-89
2023/10/03 01:52:50;;;;;;;29.70;8.60;;;;;;;;;;5075231;28;20141;-89
2023/10/03 01:55:17;;;;;;;31.13;9.52;;;;;;;;;;5091415;28;20052;-90
2023/10/03 01:57:43;;;;;;;32.75;8.60;;;;;;;;;;5057236;28;20148;-90
2023/10/03 02:00:27;;;;;;;33.30;9.38;;;;;;;;;;5057613;28;20432;-89
2023/10/03 02:05:36;;;;;;;26.23;8.43;;;;;;;;;;5062494;28;20027;-90
2023/10/03 02:08:12;;;;;;;28.80;8.25;;;;;;;;;;5056904;28;20017;-90
2023/10/03 02:10:38;;;;;;;32.20;9.40;;;;;;;;;;5056918;28;20065;-89
2023/10/03 02:13:14;;;;;;;24.80;8.20;;;;;;;;;;5056245;28;20029;-90
2023/10/03 02:15:44;;;;;;;24.70;8.05;;;;;;;;;;5056949;28;20488;-89
2023/10/03 02:18:10;;;;;;;26.10;7.88;;;;;;;;;;5074828;28;20062;-90
2023/10/03 02:20:47;;;;;;;32.97;8.43;;;;;;;;;;5056263;28;20028;-90
2023/10/03 02:23:17;;;;;;;27.83;7.90;;;;;;;;;;5056660;28;20380;-90
2023/10/03 02:25:43;;;;;;;25.90;7.70;;;;;;;;;;5058279;28;20117;-90
2023/10/03 02:28:08;;;;;;;24.17;7.22;;;;;;;;;;5055774;28;20025;-90
2023/10/03 02:30:34;;;;;;;26.30;7.35;;;;;;;;;;5057049;28;20028;-90
2023/10/03 02:33:12;;;;;;;24.80;7.40;;;;;;;;;;5056941;28;20039;-89
2023/10/03 02:35:38;;;;;;;20.73;6.80;;;;;;;;;;5057429;28;20023;-90
2023/10/03 02:38:04;;;;;;;26.60;7.57;;;;;;;;;;5053964;28;20552;-90
2023/10/03 02:40:30;;;;;;;25.88;7.50;;;;;;;;;;5074730;28;20013;-89
2023/10/03 02:42:56;;;;;;;26.40;6.70;;;;;;;;;;5074427;28;20028;-89
2023/10/03 02:45:23;;;;;;;21.17;7.10;;;;;;;;;;5090951;28;20017;-90
2023/10/03 02:48:13;;;;;;;26.63;7.03;;;;;;;;;;5056736;28;20117;-90
2023/10/03 02:50:40;;;;;;;22.33;6.97;;;;;;;;;;5057056;28;20777;-91
2023/10/03 02:53:12;;;;;;;24.90;6.82;;;;;;;;;;5056754;28;20033;-90
2023/10/03 02:55:40;;;;;;;20.67;6.20;;;;;;;;;;5056642;28;20399;-90
2023/10/03 02:58:06;;;;;;;20.10;6.95;;;;;;;;;;5056596;28;20016;-90
2023/10/03 03:00:33;;;;;;;24.45;7.10;;;;;;;;;;5056505;28;20021;-90
2023/10/03 03:03:01;;;;;;;23.10;7.22;;;;;;;;;;5055885;28;20020;-89
2023/10/03 03:05:35;;;;;;;16.70;5.93;;;;;;;;;;5056636;28;20028;-90
2023/10/03 03:08:08;;;;;;;15.20;5.18;;;;;;;;;;5056309;28;20044;-90
2023/10/03 03:10:38;;;;;;;14.20;5.35;;;;;;;;;;5056179;28;20032;-89
2023/10/03 03:13:03;;;;;;;20.35;6.13;;;;;;;;;;5046660;28;20517;-90
2023/10/03 03:15:31;;;;;;;21.23;6.38;;;;;;;;;;5055780;28;20055;-90
2023/10/03 03:18:00;;;;;;;19.73;6.60;;;;;;;;;;5055935;28;20111;-90
2023/10/03 03:20:26;;;;;;;25.17;6.43;;;;;;;;;;5056115;28;20320;-90
2023/10/03 03:22:52;;;;;;;18.83;6.65;;;;;;;;;;5056245;28;20020;-90
2023/10/03 03:26:02;;;;;;;22.70;6.85;;;;;;;;;;5056127;28;20096;-90
2023/10/03 03:28:13;;;;;;;19.70;6.32;;;;;;;;;;5071064;28;20035;-90
2023/10/03 03:30:56;;;;;;;19.17;6.63;;;;;;;;;;5056739;28;20514;-90
2023/10/03 03:33:23;;;;;;;19.65;6.07;;;;;;;;;;5057885;28;20025;-89
2023/10/03 03:35:48;;;;;;;17.65;6.22;;;;;;;;;;5057106;28;20471;-89
2023/10/03 03:38:18;;;;;;;15.23;5.63;;;;;;;;;;5058882;28;20154;-90
2023/10/03 03:40:47;;;;;;;17.08;4.63;;;;;;;;;;5074309;28;20012;-90
2023/10/03 03:43:16;;;;;;;13.55;5.15;;;;;;;;;;5056173;28;20483;-90
2023/10/03 03:45:42;;;;;;;20.63;6.10;;;;;;;;;;5057652;28;20032;-90
2023/10/03 03:48:07;;;;;;;19.50;6.20;;;;;;;;;;5056699;28;20020;-91
2023/10/03 03:50:36;;;;;;;21.58;6.18;;;;;;;;;;5055950;28;20052;-90
2023/10/03 03:53:02;;;;;;;15.27;5.72;;;;;;;;;;5054872;28;20044;-90
2023/10/03 03:55:29;;;;;;;14.30;5.85;;;;;;;;;;5054460;28;20074;-90
2023/10/03 03:58:11;;;;;;;18.48;5.35;;;;;;;;;;5072091;28;20464;-90
2023/10/03 04:00:38;;;;;;;15.15;5.28;;;;;;;;;;5089005;28;20036;-90
2023/10/03 04:03:08;;;;;;;16.88;5.50;;;;;;;;;;5055550;28;20024;-90
2023/10/03 04:05:34;;;;;;;22.92;5.72;;;;;;;;;;5055560;28;20472;-90
2023/10/03 04:08:00;;;;;;;16.73;6.80;;;;;;;;;;5055345;28;20048;-90
2023/10/03 04:10:26;;;;;;;15.95;6.45;;;;;;;;;;5055081;28;20035;-90
2023/10/03 04:12:51;;;;;;;22.88;5.85;;;;;;;;;;5054236;28;20527;-90
2023/10/03 04:15:18;;;;;;;12.27;5.15;;;;;;;;;;5054373;28;20207;-90
2023/10/03 04:17:44;;;;;;;12.95;4.60;;;;;;;;;;5054302;28;20457;-89
2023/10/03 04:20:53;;;;;;;13.35;4.72;;;;;;;;;;5054271;28;20020;-90
2023/10/03 04:22:59;;;;;;;13.15;5.45;;;;;;;;;;5059010;28;20020;-90
2023/10/03 04:25:25;;;;;;;8.55;4.47;;;;;;;;;;5088378;28;20029;-90
2023/10/03 04:27:54;;;;;;;9.98;4.93;;;;;;;;;;5055397;28;20027;-89
2023/10/03 04:30:20;;;;;;;11.85;4.93;;;;;;;;;;5088720;28;20027;-89
2023/10/03 04:32:47;;;;;;;11.45;4.55;;;;;;;;;;5054771;28;20111;-90
2023/10/03 04:35:13;;;;;;;14.35;4.43;;;;;;;;;;5052306;28;20013;-89
2023/10/03 04:37:42;;;;;;;17.45;4.15;;;;;;;;;;5056577;28;20020;-90
2023/10/03 04:40:12;;;;;;;8.93;3.42;;;;;;;;;;5055790;28;20074;-89
2023/10/03 04:42:41;;;;;;;10.10;4.47;;;;;;;;;;5056370;28;20137;-90
2023/10/03 04:45:07;;;;;;;11.27;4.07;;;;;;;;;;5053105;28;20417;-89
2023/10/03 04:47:33;;;;;;;12.65;4.28;;;;;;;;;;5046801;28;20425;-90
2023/10/03 04:49:59;;;;;;;11.45;4.63;;;;;;;;;;5056945;28;20043;-90
2023/10/03 04:52:24;;;;;;;12.75;4.22;;;;;;;;;;5056464;28;20367;-90
2023/10/03 04:54:50;;;;;;;9.82;4.13;;;;;;;;;;5073125;28;20029;-90
2023/10/03 04:57:15;;;;;;;13.38;4.68;;;;;;;;;;5072955;28;20055;-90
2023/10/03 04:59:41;;;;;;;16.10;4.82;;;;;;;;;;5055814;28;20052;-89
2023/10/03 05:02:06;;;;;;;12.43;4.28;;;;;;;;;;5053726;28;20021;-89
2023/10/03 05:04:32;;;;;;;10.30;4.32;;;;;;;;;;5048442;28;20023;-90
2023/10/03 05:06:57;;;;;;;11.57;4.28;;;;;;;;;;5058196;28;20060;-90
2023/10/03 05:09:29;;;;;;;12.77;4.65;;;;;;;;;;5077314;28;20020;-90
2023/10/03 05:11:55;;;;;;;14.18;4.07;;;;;;;;;;5058110;28;20074;-90
2023/10/03 05:14:21;;;;;;;13.25;4.53;;;;;;;;;;5059025;28;20021;-90
2023/10/03 05:16:50;;;;;;;9.43;4.10;;;;;;;;;;5058694;28;20012;-89
2023/10/03 05:19:19;;;;;;;11.60;4.07;;;;;;;;;;5076715;28;20012;-88
2023/10/03 05:21:45;;;;;;;14.32;4.13;;;;;;;;;;5057918;28;20019;-89
2023/10/03 05:24:11;;;;;;;10.45;4.97;;;;;;;;;;5058834;28;20111;-89
2023/10/03 05:26:37;;;;;;;9.18;4.30;;;;;;;;;;5058897;28;20016;-89
2023/10/03 05:29:02;;;;;;;10.70;4.63;;;;;;;;;;5059018;28;20050;-90
2023/10/03 05:31:40;;;;;;;12.75;4.97;;;;;;;;;;5075636;28;20024;-89
2023/10/03 05:34:06;;;;;;;14.30;4.30;;;;;;;;;;5058305;28;20041;-90
2023/10/03 05:36:32;;;;;;;13.15;4.68;;;;;;;;;;5058281;28;20107;-90
2023/10/03 05:38:57;;;;;;;11.50;4.25;;;;;;;;;;5058907;28;20040;-89
2023/10/03 05:41:23;;;;;;;8.25;4.25;;;;;;;;;;5057468;28;20008;-89
2023/10/03 05:43:48;;;;;;;13.05;4.80;;;;;;;;;;5076084;28;20028;-90
2023/10/03 05:46:14;;;;;;;13.32;5.07;;;;;;;;;;5057939;28;20024;-89
2023/10/03 05:48:39;;;;;;;15.70;4.47;;;;;;;;;;5060507;28;20114;-89
2023/10/03 05:51:07;;;;;;;14.30;4.68;;;;;;;;;;5059853;28;20629;-89
2023/10/03 05:53:34;;;;;;;9.10;4.50;;;;;;;;;;5058915;28;20121;-89
2023/10/03 05:55:59;;;;;;;11.82;5.10;;;;;;;;;;5058620;28;20383;-89
2023/10/03 05:58:32;;;;;;;11.05;4.70;;;;;;;;;;5061923;28;20137;-89
2023/10/03 06:00:59;;;;;;;12.75;4.90;;;;;;;;;;5079541;28;20016;-89
2023/10/03 06:03:24;;;;;;;9.70;3.83;;;;;;;;;;5076746;28;20039;-89
2023/10/03 06:05:50;;;;;;;12.35;3.85;;;;;;;;;;5061068;28;20020;-90
2023/10/03 06:08:16;;;;;;;10.77;4.20;;;;;;;;;;5059164;28;20077;-90
2023/10/03 06:10:41;;;;;;;9.48;3.45;;;;;;;;;;5056944;28;20032;-89
2023/10/03 06:13:09;;;;;;;12.48;4.45;;;;;;;;;;5046029;28;20020;-90
2023/10/03 06:15:36;;;;;;;10.88;4.10;;;;;;;;;;5058331;28;20035;-89
2023/10/03 06:18:02;;;;;;;10.10;3.63;;;;;;;;;;5056096;28;20024;-89
2023/10/03 06:20:27;;;;;;;9.68;4.40;;;;;;;;;;5055926;28;20016;-89
2023/10/03 06:22:54;;;;;;;10.52;5.75;;;;;;;;;;5056668;28;20468;-89
2023/10/03 06:25:19;;;;;;;11.07;4.85;;;;;;;;;;5057601;28;20020;-89
2023/10/03 06:27:44;;;;;;;16.20;5.03;;;;;;;;;;5057314;28;20024;-90
2023/10/03 06:30:10;;;;;;;17.88;5.90;;;;;;;;;;5057575;28;20032;-90
2023/10/03 06:32:35;;;;;;;15.98;5.30;;;;;;;;;;5056115;28;20042;-91
2023/10/03 06:35:05;;;;;;;14.00;4.82;;;;;;;;;;5068766;28;20066;-89
2023/10/03 06:37:30;;;;;;;22.13;6.32;;;;;;;;;;5053534;28;20100;-88
2023/10/03 06:39:59;;;;;;;10.05;5.22;;;;;;;;;;5081547;28;20515;-89
2023/10/03 06:42:25;;;;;;;9.32;4.57;;;;;;;;;;5053788;28;20355;-89
2023/10/03 06:44:53;;;;;;;19.75;4.88;;;;;;;;;;5064629;28;20040;-89
2023/10/03 06:47:20;;;;;;;14.38;5.65;;;;;;;;;;5054028;28;20313;-89
2023/10/03 06:49:45;;;;;;;17.08;5.35;;;;;;;;;;5053923;28;20394;-89
2023/10/03 06:52:11;;;;;;;14.88;5.25;;;;;;;;;;5056058;28;20021;-89
2023/10/03 06:54:36;;;;;;;14.45;4.95;;;;;;;;;;5062028;28;20077;-90
2023/10/03 06:57:03;;;;;;;13.00;5.45;;;;;;;;;;5075368;28;20024;-89
2023/10/03 06:59:29;;;;;;;18.27;5.40;;;;;;;;;;5055767;28;20020;-90
2023/10/03 07:01:54;;;;;;;12.90;5.30;;;;;;;;;;5055833;28;20031;-90
2023/10/03 07:04:20;;;;;;;14.02;5.53;;;;;;;;;;5075939;28;20032;-90
2023/10/03 07:06:45;;;;;;;10.77;4.68;;;;;;;;;;5051269;28;20469;-90
2023/10/03 07:09:11;;;;;;;10.57;5.45;;;;;;;;;;5053674;28;20062;-89
2023/10/03 07:11:36;;;;;;;11.07;4.88;;;;;;;;;;5056676;28;20036;-90
2023/10/03 07:14:02;;;;;;;11.65;5.05;;;;;;;;;;5054091;28;20031;-89
2023/10/03 07:16:36;;;;;;;12.60;4.85;;;;;;;;;;5057660;28;20036;-90
2023/10/03 07:19:01;;;;;;;13.45;4.93;;;;;;;;;;5055640;28;20023;-90
2023/10/03 07:21:29;;;;;;;12.25;4.30;;;;;;;;;;5056839;28;20100;-89
2023/10/03 07:23:55;;;;;;;16.70;5.50;;;;;;;;;;5057670;28;20084;-90
2023/10/03 07:26:22;;;;;;;11.10;4.88;;;;;;;;;;5056562;28;20108;-89
2023/10/03 07:28:47;;;;;;;10.88;5.00;;;;;;;;;;5062889;28;20036;-89
2023/10/03 07:31:18;;;;;;;18.50;5.65;;;;;;;;;;5055096;28;20052;-88
2023/10/03 07:33:44;;;;;;;10.43;4.75;;;;;;;;;;5059294;28;20024;-90
2023/10/03 07:36:10;;;;;;;13.38;5.63;;;;;;;;;;5059034;28;20032;-89
2023/10/03 07:38:35;;;;;;;9.50;5.03;;;;;;;;;;5056608;28;20013;-90
2023/10/03 07:41:05;;;;;;;14.15;5.32;;;;;;;;;;5089631;28;20069;-90
2023/10/03 07:43:30;;;;;;;13.35;5.60;;;;;;;;;;5056756;28;20036;-90
2023/10/03 07:45:56;;;;;;;12.25;5.07;;;;;;;;;;5056744;28;20421;-89
2023/10/03 07:48:24;;;;;;;11.38;4.65;;;;;;;;;;5055810;28;20107;-89
2023/10/03 07:50:49;;;;;;;14.02;5.32;;;;;;;;;;5054997;28;20090;-90
2023/10/03 07:53:17;;;;;;;11.30;4.68;;;;;;;;;;5056341;28;20475;-91
2023/10/03 07:55:43;;;;;;;10.45;4.90;;;;;;;;;;5055247;28;20027;-89
2023/10/03 07:58:14;;;;;;;13.40;4.72;;;;;;;;;;5055689;28;20039;-89
2023/10/03 08:00:46;;;;;;;10.10;4.45;;;;;;;;;;5073001;28;20043;-91
2023/10/03 08:03:11;;;;;;;10.95;4.88;;;;;;;;;;5056343;28;20024;-87
2023/10/03 08:05:40;;;;;;;14.07;4.80;;;;;;;;;;5056300;28;20070;-88
2023/10/03 08:08:07;;;;;;;10.32;4.35;;;;;;;;;;5072431;28;20032;-87
2023/10/03 08:10:35;;;;;;;15.25;4.85;;;;;;;;;;5069896;28;20070;-87
2023/10/03 08:13:07;;;;;;;12.07;5.07;;;;;;;;;;5036266;28;20017;-87
2023/10/03 08:15:35;;;;;;;14.57;5.15;;;;;;;;;;5049917;28;20048;-88
2023/10/03 08:18:04;;;;;;;11.35;4.85;;;;;;;;;;5056303;28;20539;-88
2023/10/03 08:20:29;;;;;;;12.48;4.57;;;;;;;;;;5057486;28;20044;-88
2023/10/03 08:22:55;;;;;;;11.85;4.78;;;;;;;;;;5058912;28;20428;-88
2023/10/03 08:25:21;;;;;;;10.75;5.30;;;;;;;;;;5059220;28;20032;-86
2023/10/03 08:28:10;;;;;;;15.85;4.63;;;;;;;;;;5057986;28;20567;-86
2023/10/03 08:30:35;;;;;;;6.80;4.00;;;;;;;;;;5057966;28;20382;-86
2023/10/03 08:33:07;;;;;;;9.75;4.65;;;;;;;;;;5059798;28;20032;-84
2023/10/03 08:35:35;;;;;;;9.10;5.03;;;;;;;;;;5037117;28;20158;-83
2023/10/03 08:38:04;;;;;;;12.57;4.65;;;;;;;;;;5055966;28;20062;-86
2023/10/03 08:40:31;;;;;;;13.38;5.80;;;;;;;;;;5057347;28;20026;-86
2023/10/03 08:42:56;;;;;;;10.27;5.63;;;;;;;;;;5056033;28;20127;-86
2023/10/03 08:45:25;;;;;;;9.50;5.45;;;;;;;;;;5076570;28;20013;-87
2023/10/03 08:47:53;;;;;;;9.95;4.25;;;;;;;;;;5058483;28;20024;-87
2023/10/03 08:50:34;;;;;;;14.70;3.97;;;;;;;;;;5053009;28;20020;-86
2023/10/03 08:53:16;;;;;;;8.70;3.50;;;;;;;;;;5054913;28;20028;-86
2023/10/03 08:55:48;;;;;;;11.52;3.22;;;;;;;;;;5054994;28;20032;-86
2023/10/03 08:58:18;;;;;;;6.80;2.70;;;;;;;;;;5054844;28;20422;-87
2023/10/03 09:00:50;;;;;;;9.65;2.88;;;;;;;;;;5054210;28;20468;-86
2023/10/03 09:03:16;;;;;;;5.72;2.47;;;;;;;;;;5054146;28;20020;-86
2023/10/03 09:05:44;;;;;;;11.00;2.95;;;;;;;;;;5054445;28;20020;-86
2023/10/03 09:08:11;;;;;;;5.05;2.70;;;;;;;;;;5095199;28;20036;-86
2023/10/03 09:10:53;;;;;;;8.48;2.70;;;;;;;;;;5053517;28;20082;-86
2023/10/03 09:13:25;;;;;;;7.85;2.50;;;;;;;;;;5052929;28;20095;-87
2023/10/03 09:15:50;;;;;;;;;;;;;;;;;;5053100;28;20124;-86
2023/10/03 09:18:21;;;;;;;8.45;2.15;;;;;;;;;;5071387;28;19943;-88
2023/10/03 09:20:49;;;;;;;6.65;2.40;;;;;;;;;;5054094;28;20017;-88
2023/10/03 09:23:17;;;;;;;5.63;2.10;;;;;;;;;;5054580;28;20073;-88
2023/10/03 09:25:48;;;;;;;5.82;2.00;;;;;;;;;;5054503;28;20455;-88
2023/10/03 09:28:14;;;;;;;8.80;2.83;;;;;;;;;;5085134;28;20387;-88
2023/10/03 09:30:40;;;;;;;5.32;2.10;;;;;;;;;;5059533;28;20033;-88
2023/10/03 09:33:05;;;;;;;7.88;2.22;;;;;;;;;;5071289;28;20056;-88
2023/10/03 09:35:31;;;;;;;6.10;2.03;;;;;;;;;;5055048;28;20012;-88
2023/10/03 09:37:57;;;;;;;7.72;2.22;;;;;;;;;;5055146;28;20383;-89
2023/10/03 09:40:22;;;;;;;5.72;2.42;;;;;;;;;;5054535;28;20023;-88
2023/10/03 09:42:49;;;;;;;5.65;2.33;;;;;;;;;;5063604;28;20028;-88
2023/10/03 09:45:18;;;;;;;5.20;1.88;;;;;;;;;;5057893;28;20028;-88
2023/10/03 09:47:45;;;;;;;4.88;1.55;;;;;;;;;;5059047;28;20021;-89
2023/10/03 09:50:11;;;;;;;9.10;2.08;;;;;;;;;;5052604;28;20051;-88
2023/10/03 09:52:37;;;;;;;3.92;1.75;;;;;;;;;;5052457;28;20020;-89
2023/10/03 09:55:49;;;;;;;7.63;2.13;;;;;;;;;;5048240;28;20028;-88
2023/10/03 09:57:54;;;;;;;4.75;1.88;;;;;;;;;;5058077;28;20028;-89
2023/10/03 10:00:25;;;;;;;5.10;1.65;;;;;;;;;;5056282;28;20484;-89
2023/10/03 10:02:55;;;;;;;5.30;1.83;;;;;;;;;;5061390;28;20363;-89
2023/10/03 10:05:22;;;;;;;5.43;1.70;;;;;;;;;;5064836;28;20409;-89
2023/10/03 10:07:50;;;;;;;5.72;1.73;;;;;;;;;;5057106;28;20025;-89
2023/10/03 10:10:19;;;;;;;5.25;1.30;;;;;;;;;;5090724;28;20448;-89
2023/10/03 10:13:12;;;;;;;3.60;1.38;;;;;;;;;;5057235;28;20338;-89
2023/10/03 10:15:37;;;;;;;;;;;;;;;;;;5064065;28;20031;-89
2023/10/03 10:18:10;;;;;;;1.30;0.57;;;;;;;;;;5056850;28;19908;-88
2023/10/03 10:20:38;;;;;;;2.00;0.55;;;;;;;;;;5075457;28;20012;-88
2023/10/03 10:25:42;;;;;;;1.00;0.40;;;;;;;;;;5080692;28;20367;-88
2023/10/03 10:28:08;;;;;;;1.13;0.60;;;;;;;;;;5057408;28;20020;-88
2023/10/03 10:30:34;;;;;;;3.30;0.70;;;;;;;;;;5048477;28;20052;-87
2023/10/03 10:33:18;;;;;;;0.30;0.20;;;;;;;;;;5079085;28;20016;-88
2023/10/03 10:35:54;;;;;;;2.47;0.95;;;;;;;;;;5053286;28;20075;-88
2023/10/03 10:38:20;;;;;;;0.95;0.32;;;;;;;;;;5088982;28;20023;-88
2023/10/03 10:41:05;;;;;;;8.02;0.68;;;;;;;;;;5056591;28;20044;-89
2023/10/03 10:43:34;;;;;;;1.63;0.73;;;;;;;;;;5042326;28;20028;-89
2023/10/03 10:46:22;;;;;;;1.13;0.63;;;;;;;;;;5057654;28;20013;-88
2023/10/03 10:48:49;;;;;;;0.98;0.50;;;;;;;;;;5060581;28;20028;-89
2023/10/03 10:51:15;;;;;;;3.42;0.70;;;;;;;;;;5074435;28;20029;-89
2023/10/03 10:53:45;;;;;;;2.53;0.77;;;;;;;;;;5047087;28;20063;-88
2023/10/03 10:56:11;;;;;;;3.47;0.80;;;;;;;;;;5057706;28;20094;-88
2023/10/03 10:58:53;;;;;;;4.18;0.85;;;;;;;;;;5057829;28;20024;-89
2023/10/03 11:01:19;;;;;;;4.88;0.70;;;;;;;;;;5061824;28;20079;-89
2023/10/03 11:03:45;;;;;;;2.50;0.63;;;;;;;;;;5052637;28;20048;-88
2023/10/03 11:06:14;;;;;;;2.05;0.70;;;;;;;;;;5056457;28;20059;-88
2023/10/03 11:08:47;;;;;;;1.55;0.63;;;;;;;;;;5059189;28;20024;-89
2023/10/03 11:11:12;;;;;;;1.15;0.73;;;;;;;;;;5074726;28;20020;-88
2023/10/03 11:13:46;;;;;;;3.78;0.90;;;;;;;;;;5053392;28;20025;-90
2023/10/03 11:16:11;;;;;;;4.43;0.90;;;;;;;;;;5065524;28;20379;-89
2023/10/03 11:18:37;;;;;;;1.45;0.90;;;;;;;;;;5056381;28;20112;-88
2023/10/03 11:21:03;;;;;;;3.28;1.45;;;;;;;;;;5056315;28;20008;-89
2023/10/03 11:23:31;;;;;;;4.85;1.40;;;;;;;;;;5056603;28;20470;-89
2023/10/03 11:25:57;;;;;;;5.97;1.45;;;;;;;;;;5058524;28;20016;-89
2023/10/03 11:28:23;;;;;;;6.43;1.50;;;;;;;;;;5054801;28;20306;-88
2023/10/03 11:31:02;;;;;;;3.75;1.15;;;;;;;;;;5054838;28;20020;-89
2023/10/03 11:33:27;;;;;;;5.35;1.58;;;;;;;;;;5064816;28;20031;-89
2023/10/03 11:35:53;;;;;;;4.45;1.48;;;;;;;;;;5059028;28;20024;-89
2023/10/03 11:38:18;;;;;;;9.50;1.02;;;;;;;;;;5056322;28;20048;-89
2023/10/03 11:40:44;;;;;;;6.43;1.20;;;;;;;;;;5056118;28;20020;-89
2023/10/03 11:43:10;;;;;;;3.90;0.90;;;;;;;;;;5054388;28;20490;-90
2023/10/03 11:45:36;;;;;;;3.97;0.95;;;;;;;;;;5054260;28;20017;-90
2023/10/03 11:48:17;;;;;;;2.97;0.70;;;;;;;;;;5056519;28;20020;-90
2023/10/03 11:50:43;;;;;;;1.58;0.65;;;;;;;;;;5056552;28;20357;-89
2023/10/03 11:53:12;;;;;;;4.97;1.10;;;;;;;;;;5056391;28;20024;-90
2023/10/03 11:55:40;;;;;;;3.25;0.63;;;;;;;;;;5055634;28;20024;-90
2023/10/03 11:58:06;;;;;;;2.80;0.80;;;;;;;;;;5058161;28;20027;-89
2023/10/03 12:00:33;;;;;;;0.88;0.40;;;;;;;;;;5057330;28;20472;-89
2023/10/03 12:02:59;;;;;;;6.65;0.70;;;;;;;;;;5046728;28;20060;-89
2023/10/03 12:05:26;;;;;;;1.52;0.50;;;;;;;;;;5054327;28;20016;-89
2023/10/03 12:07:56;;;;;;;1.27;0.60;;;;;;;;;;5060938;28;20023;-89
2023/10/03 12:10:24;;;;;;;2.00;0.90;;;;;;;;;;5058704;28;20024;-88
2023/10/03 12:12:49;;;;;;;2.40;0.98;;;;;;;;;;5055777;28;20020;-89
2023/10/03 12:15:16;;;;;;;3.15;0.80;;;;;;;;;;5073476;28;20016;-89
2023/10/03 12:17:42;;;;;;;6.28;1.13;;;;;;;;;;5070356;28;20107;-89
2023/10/03 12:20:14;;;;;;;8.20;1.02;;;;;;;;;;5056150;28;20051;-89
2023/10/03 12:22:44;;;;;;;4.00;0.85;;;;;;;;;;5056643;28;20025;-89
2023/10/03 12:25:10;;;;;;;4.07;0.93;;;;;;;;;;5053416;28;20452;-90
2023/10/03 12:27:36;;;;;;;5.15;0.90;;;;;;;;;;5053311;28;20060;-90
2023/10/03 12:30:04;;;;;;;2.42;0.63;;;;;;;;;;5060665;28;20024;-89
2023/10/03 12:32:34;;;;;;;6.68;0.93;;;;;;;;;;5055908;28;20388;-89
2023/10/03 12:34:59;;;;;;;5.40;1.10;;;;;;;;;;5052819;28;20024;-89
2023/10/03 12:37:29;;;;;;;4.13;0.93;;;;;;;;;;5055896;28;20091;-89
2023/10/03 12:39:55;;;;;;;3.08;0.90;;;;;;;;;;5063107;28;20545;-89
2023/10/03 12:42:21;;;;;;;2.83;1.08;;;;;;;;;;5055482;28;20575;-89
2023/10/03 12:44:46;;;;;;;3.03;1.02;;;;;;;;;;5055771;28;20024;-89
2023/10/03 12:47:12;;;;;;;6.20;0.77;;;;;;;;;;5055443;28;20089;-89
2023/10/03 12:49:37;;;;;;;2.00;0.90;;;;;;;;;;5057084;28;20021;-90
2023/10/03 12:52:02;;;;;;;5.88;0.90;;;;;;;;;;5056109;28;20104;-90
2023/10/03 12:54:28;;;;;;;2.20;0.85;;;;;;;;;;5055501;28;20059;-90
2023/10/03 12:56:53;;;;;;;3.05;0.90;;;;;;;;;;5055349;28;20028;-90
2023/10/03 12:59:22;;;;;;;1.27;0.55;;;;;;;;;;5055018;28;20430;-90
2023/10/03 13:01:48;;;;;;;7.10;1.33;;;;;;;;;;5070877;28;20008;-89
2023/10/03 13:04:13;;;;;;;3.30;0.90;;;;;;;;;;5043139;28;20107;-89
2023/10/03 13:06:41;;;;;;;7.90;1.33;;;;;;;;;;5055773;28;20138;-89
2023/10/03 13:09:06;;;;;;;7.60;1.98;;;;;;;;;;5075345;28;20036;-90
2023/10/03 13:11:32;;;;;;;5.57;1.92;;;;;;;;;;5043090;28;20017;-89
2023/10/03 13:13:58;;;;;;;4.78;1.70;;;;;;;;;;5058282;28;20017;-89
2023/10/03 13:16:24;;;;;;;2.33;1.15;;;;;;;;;;5055343;28;20024;-88
2023/10/03 13:18:50;;;;;;;3.95;1.00;;;;;;;;;;5063980;28;20392;-90
2023/10/03 13:21:16;;;;;;;2.63;1.10;;;;;;;;;;5056891;28;20024;-90
2023/10/03 13:23:42;;;;;;;5.75;1.35;;;;;;;;;;5075685;28;20388;-90
2023/10/03 13:26:10;;;;;;;3.25;1.08;;;;;;;;;;5059694;28;20031;-89
2023/10/03 13:28:36;;;;;;;5.72;1.10;;;;;;;;;;5062342;28;20101;-89
2023/10/03 13:31:01;;;;;;;5.32;0.65;;;;;;;;;;5060585;28;20021;-91
2023/10/03 13:33:27;;;;;;;3.05;1.30;;;;;;;;;;5059477;28;20144;-90
2023/10/03 13:35:53;;;;;;;4.35;1.45;;;;;;;;;;5060158;28;20078;-89
2023/10/03 13:38:18;;;;;;;6.10;1.42;;;;;;;;;;5079662;28;20430;-90
2023/10/03 13:40:44;;;;;;;5.57;1.45;;;;;;;;;;5059219;28;20111;-90
2023/10/03 13:43:17;;;;;;;3.50;1.45;;;;;;;;;;5059969;28;20047;-91
2023/10/03 13:45:43;;;;;;;4.30;1.38;;;;;;;;;;5060060;28;20052;-90
2023/10/03 13:48:08;;;;;;;5.18;1.50;;;;;;;;;;5056558;28;20024;-90
2023/10/03 13:50:36;;;;;;;4.80;1.60;;;;;;;;;;5058440;28;20516;-90
2023/10/03 13:53:06;;;;;;;5.13;1.65;;;;;;;;;;5058672;28;20367;-90
2023/10/03 13:55:32;;;;;;;5.85;1.92;;;;;;;;;;5044974;28;20008;-89
2023/10/03 13:57:57;;;;;;;4.80;1.80;;;;;;;;;;5058409;28;20036;-89
2023/10/03 14:00:28;;;;;;;4.20;1.63;;;;;;;;;;5058316;28;20100;-89
2023/10/03 14:02:55;;;;;;;7.45;2.00;;;;;;;;;;5053944;28;20420;-89
2023/10/03 14:05:22;;;;;;;9.68;2.40;;;;;;;;;;5059259;28;20123;-91
2023/10/03 14:07:48;;;;;;;5.70;1.92;;;;;;;;;;5059742;28;20028;-90
2023/10/03 14:10:14;;;;;;;4.80;1.65;;;;;;;;;;5059805;28;20108;-90
2023/10/03 14:12:40;;;;;;;7.95;1.80;;;;;;;;;;5058342;28;20020;-90
2023/10/03 14:15:09;;;;;;;3.83;1.45;;;;;;;;;;5056455;28;20025;-91
2023/10/03 14:17:35;;;;;;;6.60;1.58;;;;;;;;;;5057327;28;20127;-89
2023/10/03 14:20:05;;;;;;;3.08;1.60;;;;;;;;;;5057838;28;20055;-90
2023/10/03 14:22:32;;;;;;;5.93;1.50;;;;;;;;;;5090490;28;20089;-90
2023/10/03 14:24:57;;;;;;;3.70;1.45;;;;;;;;;;5056913;28;20336;-90
2023/10/03 14:27:22;;;;;;;3.60;1.25;;;;;;;;;;5057971;28;20040;-90
2023/10/03 14:29:48;;;;;;;3.40;1.08;;;;;;;;;;5057307;28;20020;-90
2023/10/03 14:32:19;;;;;;;5.53;1.48;;;;;;;;;;5055705;28;20027;-89
2023/10/03 14:34:45;;;;;;;4.03;1.48;;;;;;;;;;5054218;28;20021;-90
2023/10/03 14:37:10;;;;;;;4.68;1.13;;;;;;;;;;5057671;28;20024;-90
2023/10/03 14:39:36;;;;;;;4.03;1.15;;;;;;;;;;5092115;28;20384;-91
2023/10/03 14:42:01;;;;;;;4.53;1.42;;;;;;;;;;5085384;28;20022;-90
2023/10/03 14:44:27;;;;;;;3.60;1.20;;;;;;;;;;5077829;28;20337;-90